Time;durP1;ratioP1;P1;durP2;ratioP2;P2;SDS_P1;SDS_P2;PMS_P1;PMS_P2;Temp;Humidity;BMP_temperature;BMP_pressure;BME280_temperature;BME280_humidity;BME280_pressure;Samples;Min_cycle;Max_cycle;Signal;HPM_P1;HPM_P2
2021/03/22 00:01:53;;;;;;;4.45;1.20;;;;;;;;;;4964284;28;20051;-52
2021/03/22 00:04:19;;;;;;;3.33;0.88;;;;;;;;;;4964644;28;20772;-54
2021/03/22 00:06:44;;;;;;;8.68;1.27;;;;;;;;;;4964194;28;20121;-57
2021/03/22 00:09:10;;;;;;;3.40;0.70;;;;;;;;;;4963271;28;20066;-53
2021/03/22 00:11:36;;;;;;;2.97;0.68;;;;;;;;;;4962633;28;20038;-56
2021/03/22 00:14:02;;;;;;;5.05;0.77;;;;;;;;;;4963974;28;20046;-52
2021/03/22 00:16:28;;;;;;;4.68;1.00;;;;;;;;;;4963140;28;20054;-52
2021/03/22 00:18:54;;;;;;;4.82;1.08;;;;;;;;;;4965065;28;20459;-55
2021/03/22 00:21:20;;;;;;;2.95;0.95;;;;;;;;;;4963235;28;20043;-55
2021/03/22 00:23:46;;;;;;;4.63;0.70;;;;;;;;;;4965644;28;20073;-54
2021/03/22 00:26:12;;;;;;;2.70;0.75;;;;;;;;;;4963871;28;20042;-53
2021/03/22 00:28:41;;;;;;;2.28;0.60;;;;;;;;;;4962473;28;20709;-51
2021/03/22 00:31:12;;;;;;;3.00;0.63;;;;;;;;;;4960174;28;20448;-55
2021/03/22 00:33:38;;;;;;;5.05;0.80;;;;;;;;;;4962003;28;20038;-53
2021/03/22 00:36:05;;;;;;;3.42;0.77;;;;;;;;;;4962917;28;20164;-56
2021/03/22 00:38:31;;;;;;;5.00;0.80;;;;;;;;;;4960763;28;20606;-53
2021/03/22 00:40:56;;;;;;;3.58;0.95;;;;;;;;;;4962376;28;20045;-54
2021/03/22 00:43:23;;;;;;;4.47;0.80;;;;;;;;;;4969169;28;20061;-53
2021/03/22 00:45:49;;;;;;;3.97;0.80;;;;;;;;;;4975374;28;20031;-54
2021/03/22 00:48:15;;;;;;;12.85;1.10;;;;;;;;;;4978419;28;20075;-52
2021/03/22 00:50:43;;;;;;;5.25;0.80;;;;;;;;;;4964694;28;20491;-53
2021/03/22 00:53:10;;;;;;;7.40;1.23;;;;;;;;;;4963370;28;20411;-53
2021/03/22 00:55:36;;;;;;;4.93;0.88;;;;;;;;;;4961500;28;20117;-54
2021/03/22 00:58:02;;;;;;;2.40;0.80;;;;;;;;;;4962661;28;20050;-54
2021/03/22 01:00:36;;;;;;;3.40;0.80;;;;;;;;;;4960541;28;20053;-55
2021/03/22 01:03:04;;;;;;;4.10;0.98;;;;;;;;;;4963387;28;20053;-53
2021/03/22 01:05:30;;;;;;;4.75;0.95;;;;;;;;;;4961093;28;20041;-53
2021/03/22 01:07:56;;;;;;;7.07;0.88;;;;;;;;;;4962937;28;20043;-54
2021/03/22 01:10:21;;;;;;;7.78;1.00;;;;;;;;;;4960653;28;20169;-54
2021/03/22 01:12:47;;;;;;;4.95;0.90;;;;;;;;;;4962545;28;20069;-51
2021/03/22 01:15:13;;;;;;;7.47;1.02;;;;;;;;;;4962735;28;20061;-54
2021/03/22 01:17:39;;;;;;;7.03;0.90;;;;;;;;;;4961049;28;20474;-55
2021/03/22 01:20:10;;;;;;;7.65;0.90;;;;;;;;;;4962766;28;20034;-55
2021/03/22 01:22:36;;;;;;;6.95;0.90;;;;;;;;;;4961642;28;20566;-54
2021/03/22 01:25:05;;;;;;;9.38;1.52;;;;;;;;;;4962519;28;20043;-55
2021/03/22 01:27:30;;;;;;;7.78;2.20;;;;;;;;;;4961950;28;20045;-56
2021/03/22 01:29:56;;;;;;;5.90;1.50;;;;;;;;;;4965922;28;20061;-55
2021/03/22 01:32:22;;;;;;;4.47;1.20;;;;;;;;;;4962594;28;20046;-58
2021/03/22 01:34:48;;;;;;;6.57;1.83;;;;;;;;;;4964112;28;20042;-54
2021/03/22 01:37:14;;;;;;;3.38;1.35;;;;;;;;;;4963349;28;21059;-54
2021/03/22 01:39:40;;;;;;;6.20;1.55;;;;;;;;;;4962869;28;20039;-56
2021/03/22 01:42:06;;;;;;;6.63;1.80;;;;;;;;;;4963340;28;20086;-55
2021/03/22 01:44:32;;;;;;;13.50;5.57;;;;;;;;;;4963407;28;20097;-57
2021/03/22 01:47:02;;;;;;;23.20;5.72;;;;;;;;;;4961543;28;20043;-55
2021/03/22 01:49:30;;;;;;;12.18;5.28;;;;;;;;;;4961508;28;20042;-56
2021/03/22 01:51:56;;;;;;;14.45;2.55;;;;;;;;;;4963086;28;20030;-53
2021/03/22 01:54:23;;;;;;;4.30;1.20;;;;;;;;;;4962811;28;20540;-58
2021/03/22 01:56:52;;;;;;;6.85;1.35;;;;;;;;;;4962176;28;20050;-55
2021/03/22 01:59:21;;;;;;;6.00;0.98;;;;;;;;;;4961859;28;20030;-55
2021/03/22 02:01:49;;;;;;;3.80;1.00;;;;;;;;;;4963135;28;20604;-56
2021/03/22 02:04:15;;;;;;;5.70;1.00;;;;;;;;;;4960529;28;20042;-54
2021/03/22 02:06:41;;;;;;;6.13;1.20;;;;;;;;;;4960504;28;20042;-50
2021/03/22 02:09:07;;;;;;;3.13;0.98;;;;;;;;;;4963852;28;20034;-59
2021/03/22 02:11:35;;;;;;;5.38;1.00;;;;;;;;;;4962658;28;20043;-53
2021/03/22 02:14:03;;;;;;;5.55;0.80;;;;;;;;;;4962758;28;20447;-53
2021/03/22 02:16:40;;;;;;;3.42;0.93;;;;;;;;;;4959667;28;20066;-52
2021/03/22 02:19:17;;;;;;;16.38;1.40;;;;;;;;;;4962926;28;20041;-52
2021/03/22 02:21:45;;;;;;;5.93;0.90;;;;;;;;;;4961851;28;20472;-54
2021/03/22 02:24:11;;;;;;;5.97;0.80;;;;;;;;;;4960443;28;20157;-54
2021/03/22 02:26:56;;;;;;;4.78;0.70;;;;;;;;;;4960484;28;20046;-55
2021/03/22 02:29:35;;;;;;;3.88;0.77;;;;;;;;;;4961300;28;20039;-54
2021/03/22 02:32:04;;;;;;;2.95;0.90;;;;;;;;;;4961467;28;20049;-55
2021/03/22 02:34:36;;;;;;;5.60;0.70;;;;;;;;;;4962565;28;20062;-51
2021/03/22 02:37:08;;;;;;;5.50;1.10;;;;;;;;;;4962012;28;20566;-55
2021/03/22 02:39:42;;;;;;;4.30;1.40;;;;;;;;;;4960741;28;20054;-53
2021/03/22 02:42:09;;;;;;;6.28;1.20;;;;;;;;;;4962066;28;20038;-55
2021/03/22 02:44:37;;;;;;;4.18;1.15;;;;;;;;;;4959829;28;20031;-53
2021/03/22 02:47:05;;;;;;;5.00;0.80;;;;;;;;;;4991446;28;20459;-53
2021/03/22 02:49:34;;;;;;;8.50;1.02;;;;;;;;;;4961576;28;20608;-56
2021/03/22 02:52:06;;;;;;;4.13;1.50;;;;;;;;;;4963873;28;20051;-54
2021/03/22 02:54:37;;;;;;;3.08;0.82;;;;;;;;;;4991559;28;20664;-54
2021/03/22 02:57:19;;;;;;;6.05;1.73;;;;;;;;;;4961344;28;20581;-53
2021/03/22 02:59:59;;;;;;;2.13;0.73;;;;;;;;;;4976547;28;20045;-57
2021/03/22 03:02:27;;;;;;;4.85;0.77;;;;;;;;;;4969726;28;20046;-51
2021/03/22 03:04:54;;;;;;;6.45;1.00;;;;;;;;;;4964706;28;20043;-53
2021/03/22 03:07:21;;;;;;;8.85;1.00;;;;;;;;;;4963807;28;20152;-56
2021/03/22 03:09:47;;;;;;;4.93;1.10;;;;;;;;;;4964083;28;20066;-53
2021/03/22 03:12:13;;;;;;;4.38;0.95;;;;;;;;;;4964311;28;22099;-56
2021/03/22 03:14:41;;;;;;;3.40;1.10;;;;;;;;;;4963145;28;20050;-52
2021/03/22 03:17:07;;;;;;;3.38;0.80;;;;;;;;;;4963754;28;20105;-52
2021/03/22 03:19:32;;;;;;;5.00;0.93;;;;;;;;;;4964879;28;20042;-54
2021/03/22 03:21:59;;;;;;;2.85;0.60;;;;;;;;;;4963684;28;20050;-51
2021/03/22 03:24:26;;;;;;;1.67;0.50;;;;;;;;;;4962936;28;20129;-57
2021/03/22 03:26:52;;;;;;;4.25;0.60;;;;;;;;;;4962147;28;20105;-52
2021/03/22 03:29:18;;;;;;;4.35;0.60;;;;;;;;;;4963533;28;20436;-55
2021/03/22 03:31:44;;;;;;;2.30;0.60;;;;;;;;;;4963758;28;20129;-53
2021/03/22 03:34:10;;;;;;;2.25;0.60;;;;;;;;;;4963995;28;20041;-53
2021/03/22 03:36:35;;;;;;;3.63;0.50;;;;;;;;;;4964098;28;20069;-55
2021/03/22 03:39:03;;;;;;;6.07;0.88;;;;;;;;;;4964010;28;20094;-52
2021/03/22 03:41:29;;;;;;;2.30;0.50;;;;;;;;;;4963648;28;20085;-53
2021/03/22 03:43:55;;;;;;;3.58;0.60;;;;;;;;;;4961160;28;20054;-57
2021/03/22 03:46:21;;;;;;;3.83;0.70;;;;;;;;;;4966817;28;20480;-58
2021/03/22 03:48:47;;;;;;;2.17;0.60;;;;;;;;;;4964950;28;20073;-58
2021/03/22 03:51:13;;;;;;;3.38;0.70;;;;;;;;;;4964357;28;20054;-58
2021/03/22 03:53:38;;;;;;;2.38;0.60;;;;;;;;;;4963977;28;20038;-59
2021/03/22 03:56:04;;;;;;;2.17;0.60;;;;;;;;;;4954063;28;20055;-57
2021/03/22 03:58:30;;;;;;;2.10;0.60;;;;;;;;;;4963540;28;20118;-56
2021/03/22 04:00:56;;;;;;;1.80;0.60;;;;;;;;;;4961439;28;20050;-57
2021/03/22 04:03:22;;;;;;;1.77;0.60;;;;;;;;;;4963863;28;20720;-56
2021/03/22 04:06:08;;;;;;;2.60;0.60;;;;;;;;;;4963276;28;20680;-56
2021/03/22 04:08:35;;;;;;;4.22;0.70;;;;;;;;;;4963682;28;20043;-57
2021/03/22 04:11:02;;;;;;;3.35;0.60;;;;;;;;;;4962232;28;20047;-57
2021/03/22 04:13:28;;;;;;;2.63;0.57;;;;;;;;;;4963097;28;20050;-59
2021/03/22 04:15:55;;;;;;;1.85;0.50;;;;;;;;;;4964164;28;20082;-57
2021/03/22 04:18:21;;;;;;;2.08;0.60;;;;;;;;;;4963622;28;20089;-56
2021/03/22 04:20:47;;;;;;;3.75;0.60;;;;;;;;;;4964493;28;20050;-58
2021/03/22 04:23:13;;;;;;;2.80;0.60;;;;;;;;;;4962856;28;20138;-56
2021/03/22 04:25:38;;;;;;;3.70;0.70;;;;;;;;;;4960399;28;20764;-58
2021/03/22 04:28:05;;;;;;;2.08;0.70;;;;;;;;;;4962288;28;20053;-59
2021/03/22 04:30:31;;;;;;;4.40;0.70;;;;;;;;;;4963943;28;20478;-57
2021/03/22 04:32:57;;;;;;;2.08;0.63;;;;;;;;;;4964168;28;20062;-58
2021/03/22 04:35:23;;;;;;;8.68;0.75;;;;;;;;;;4963539;28;20483;-58
2021/03/22 04:37:49;;;;;;;3.10;0.60;;;;;;;;;;4964201;28;20553;-54
2021/03/22 04:40:16;;;;;;;3.15;0.68;;;;;;;;;;4963987;28;20101;-56
2021/03/22 04:42:41;;;;;;;4.53;0.85;;;;;;;;;;4962574;28;20035;-57
2021/03/22 04:45:08;;;;;;;6.22;0.77;;;;;;;;;;4963695;28;20499;-57
2021/03/22 04:47:35;;;;;;;3.53;0.60;;;;;;;;;;4961737;28;20549;-57
2021/03/22 04:50:01;;;;;;;4.47;0.70;;;;;;;;;;4962657;28;20043;-58
2021/03/22 04:52:30;;;;;;;1.65;0.60;;;;;;;;;;4962232;28;20078;-56
2021/03/22 04:54:55;;;;;;;2.25;0.50;;;;;;;;;;4962130;28;20334;-57
2021/03/22 04:57:25;;;;;;;4.78;0.60;;;;;;;;;;4961862;28;20057;-57
2021/03/22 04:59:52;;;;;;;5.13;0.80;;;;;;;;;;4963223;28;20037;-59
2021/03/22 05:02:18;;;;;;;2.83;0.68;;;;;;;;;;4963406;28;20206;-58
2021/03/22 05:04:44;;;;;;;2.85;0.65;;;;;;;;;;4962407;28;20050;-57
2021/03/22 05:07:09;;;;;;;6.18;0.70;;;;;;;;;;4962440;28;20035;-56
2021/03/22 05:09:35;;;;;;;2.63;0.60;;;;;;;;;;4961908;28;20043;-57
2021/03/22 05:12:03;;;;;;;9.95;0.70;;;;;;;;;;4992662;28;20130;-59
2021/03/22 05:14:29;;;;;;;2.88;0.73;;;;;;;;;;4962239;28;20125;-56
2021/03/22 05:16:55;;;;;;;6.25;0.70;;;;;;;;;;4963794;28;20043;-58
2021/03/22 05:19:21;;;;;;;2.72;0.70;;;;;;;;;;4962867;28;20504;-58
2021/03/22 05:21:47;;;;;;;1.92;0.55;;;;;;;;;;4964368;28;20098;-59
2021/03/22 05:24:12;;;;;;;7.30;0.70;;;;;;;;;;4964049;28;20039;-58
2021/03/22 05:26:38;;;;;;;2.60;0.82;;;;;;;;;;4962899;28;20042;-57
2021/03/22 05:29:04;;;;;;;4.90;1.90;;;;;;;;;;4962872;28;20409;-57
2021/03/22 05:31:34;;;;;;;4.18;1.23;;;;;;;;;;4961419;28;20043;-58
2021/03/22 05:33:59;;;;;;;6.45;0.80;;;;;;;;;;4963550;28;20543;-57
2021/03/22 05:36:26;;;;;;;2.47;0.70;;;;;;;;;;4960933;28;20042;-57
2021/03/22 05:38:51;;;;;;;6.93;0.80;;;;;;;;;;4954632;28;20038;-55
2021/03/22 05:41:19;;;;;;;3.80;0.70;;;;;;;;;;4961908;28;20399;-58
2021/03/22 05:43:45;;;;;;;2.00;0.60;;;;;;;;;;4958183;28;20058;-56
2021/03/22 05:46:30;;;;;;;4.30;0.75;;;;;;;;;;4962036;28;20817;-57
2021/03/22 05:49:02;;;;;;;3.10;0.60;;;;;;;;;;4961490;28;20506;-56
2021/03/22 05:51:53;;;;;;;3.58;0.60;;;;;;;;;;4961919;28;20125;-56
2021/03/22 05:54:29;;;;;;;3.90;0.60;;;;;;;;;;4961218;28;20065;-58
2021/03/22 05:57:21;;;;;;;4.55;0.70;;;;;;;;;;4961766;28;20366;-56
2021/03/22 06:00:03;;;;;;;1.65;0.50;;;;;;;;;;4964019;28;20049;-56
2021/03/22 06:02:34;;;;;;;3.15;0.50;;;;;;;;;;4961713;28;20047;-57
2021/03/22 06:05:04;;;;;;;3.35;0.80;;;;;;;;;;4960996;28;20035;-57
2021/03/22 06:07:31;;;;;;;2.03;0.57;;;;;;;;;;4960107;28;20046;-56
2021/03/22 06:10:03;;;;;;;1.65;0.50;;;;;;;;;;4960833;28;20440;-58
2021/03/22 06:12:29;;;;;;;2.03;0.60;;;;;;;;;;4961702;28;20096;-56
2021/03/22 06:15:14;;;;;;;2.40;0.70;;;;;;;;;;4962341;28;20118;-57
2021/03/22 06:17:44;;;;;;;3.83;0.60;;;;;;;;;;4959081;28;20062;-57
2021/03/22 06:20:21;;;;;;;2.58;0.50;;;;;;;;;;4961050;28;20046;-57
2021/03/22 06:22:47;;;;;;;2.28;0.50;;;;;;;;;;4960379;28;20049;-58
2021/03/22 06:25:23;;;;;;;5.65;0.60;;;;;;;;;;4961446;28;20495;-57
2021/03/22 06:27:51;;;;;;;1.88;0.60;;;;;;;;;;4960054;28;20043;-58
2021/03/22 06:30:18;;;;;;;3.22;0.50;;;;;;;;;;4961399;28;20045;-54
2021/03/22 06:32:48;;;;;;;4.35;0.73;;;;;;;;;;4963238;28;20102;-57
2021/03/22 06:35:23;;;;;;;2.95;0.60;;;;;;;;;;4964212;28;20045;-57
2021/03/22 06:37:49;;;;;;;1.50;0.50;;;;;;;;;;4965627;28;20057;-57
2021/03/22 06:40:27;;;;;;;4.97;0.50;;;;;;;;;;4966027;28;20384;-57
2021/03/22 06:43:12;;;;;;;1.92;0.50;;;;;;;;;;4965147;28;20043;-56
2021/03/22 06:45:40;;;;;;;1.95;0.50;;;;;;;;;;4979478;28;20066;-57
2021/03/22 06:48:12;;;;;;;1.23;0.40;;;;;;;;;;4966341;28;20050;-57
2021/03/22 06:50:38;;;;;;;1.77;0.60;;;;;;;;;;4965449;28;20031;-58
2021/03/22 06:53:04;;;;;;;2.92;0.50;;;;;;;;;;4966741;28;21945;-55
2021/03/22 06:55:31;;;;;;;3.90;0.60;;;;;;;;;;4963782;28;20057;-58
2021/03/22 06:57:58;;;;;;;3.17;0.50;;;;;;;;;;4966080;28;20405;-58
2021/03/22 07:00:24;;;;;;;2.65;0.70;;;;;;;;;;4966564;28;20505;-57
2021/03/22 07:02:53;;;;;;;2.25;0.50;;;;;;;;;;4979814;28;20085;-57
2021/03/22 07:05:28;;;;;;;3.35;0.40;;;;;;;;;;4964989;28;20466;-58
2021/03/22 07:07:57;;;;;;;1.25;0.40;;;;;;;;;;4965314;28;20043;-55
2021/03/22 07:10:24;;;;;;;1.73;0.50;;;;;;;;;;4964656;28;20150;-57
2021/03/22 07:13:10;;;;;;;1.40;0.47;;;;;;;;;;4965047;28;20133;-56
2021/03/22 07:15:37;;;;;;;1.55;0.40;;;;;;;;;;4964450;28;20047;-58
2021/03/22 07:18:14;;;;;;;3.72;0.40;;;;;;;;;;4965795;28;20039;-56
2021/03/22 07:20:41;;;;;;;2.15;0.50;;;;;;;;;;4963809;28;20570;-58
2021/03/22 07:23:12;;;;;;;1.40;0.40;;;;;;;;;;4964706;28;20061;-58
2021/03/22 07:25:47;;;;;;;0.93;0.40;;;;;;;;;;4962068;28;20134;-57
2021/03/22 07:28:29;;;;;;;2.83;0.50;;;;;;;;;;4965177;28;20405;-57
2021/03/22 07:31:13;;;;;;;1.63;0.40;;;;;;;;;;4964641;28;20038;-57
2021/03/22 07:34:02;;;;;;;1.92;0.40;;;;;;;;;;4963180;28;20045;-58
2021/03/22 07:36:34;;;;;;;1.73;0.45;;;;;;;;;;4972160;28;20062;-57
2021/03/22 07:39:13;;;;;;;7.78;1.67;;;;;;;;;;4964256;28;20448;-56
2021/03/22 07:41:53;;;;;;;1.52;0.40;;;;;;;;;;4964167;28;20046;-55
2021/03/22 07:44:22;;;;;;;1.52;0.50;;;;;;;;;;4967783;28;20042;-58
2021/03/22 07:46:51;;;;;;;3.58;0.50;;;;;;;;;;4963692;28;20057;-57
2021/03/22 07:49:29;;;;;;;1.20;0.40;;;;;;;;;;4964053;28;20035;-59
2021/03/22 07:52:15;;;;;;;0.98;0.30;;;;;;;;;;4964423;28;20131;-57
2021/03/22 07:54:51;;;;;;;2.17;0.40;;;;;;;;;;4963494;28;20077;-55
2021/03/22 07:57:33;;;;;;;3.72;0.50;;;;;;;;;;4963079;28;20096;-58
2021/03/22 08:00:17;;;;;;;2.47;0.45;;;;;;;;;;4963275;28;20049;-58
2021/03/22 08:02:46;;;;;;;1.38;0.43;;;;;;;;;;4963408;28;20038;-57
2021/03/22 08:05:25;;;;;;;3.13;0.43;;;;;;;;;;4966621;28;21176;-57
2021/03/22 08:08:09;;;;;;;0.73;0.30;;;;;;;;;;4966176;28;20137;-57
2021/03/22 08:10:35;;;;;;;3.38;0.47;;;;;;;;;;4963280;28;20046;-56
2021/03/22 08:13:10;;;;;;;2.10;0.50;;;;;;;;;;4963918;28;20038;-56
2021/03/22 08:15:42;;;;;;;2.28;0.50;;;;;;;;;;4962529;28;20193;-57
2021/03/22 08:18:23;;;;;;;3.22;0.70;;;;;;;;;;4963159;28;20522;-57
2021/03/22 08:21:09;;;;;;;3.30;0.55;;;;;;;;;;4964152;28;20400;-57
2021/03/22 08:23:47;;;;;;;1.70;0.45;;;;;;;;;;4963886;28;20872;-57
2021/03/22 08:26:17;;;;;;;2.17;0.50;;;;;;;;;;4963168;28;20082;-57
2021/03/22 08:29:06;;;;;;;4.97;0.40;;;;;;;;;;4964791;28;20138;-57
2021/03/22 08:31:41;;;;;;;3.10;0.40;;;;;;;;;;4965838;28;20038;-57
2021/03/22 08:34:27;;;;;;;2.53;0.50;;;;;;;;;;4965250;28;20026;-57
2021/03/22 08:37:14;;;;;;;1.98;0.50;;;;;;;;;;4974074;28;20061;-58
2021/03/22 08:39:46;;;;;;;7.43;0.50;;;;;;;;;;4967878;28;20050;-58
2021/03/22 08:42:18;;;;;;;4.93;0.60;;;;;;;;;;4963779;28;20077;-56
2021/03/22 08:45:02;;;;;;;2.72;0.50;;;;;;;;;;4963650;28;20049;-58
2021/03/22 08:47:57;;;;;;;2.08;0.50;;;;;;;;;;4962022;28;20076;-59
2021/03/22 08:50:25;;;;;;;2.00;0.43;;;;;;;;;;4961955;28;20046;-58
2021/03/22 08:52:59;;;;;;;1.30;0.40;;;;;;;;;;4966150;28;20038;-58
2021/03/22 08:55:33;;;;;;;3.03;0.50;;;;;;;;;;4960053;28;20138;-58
2021/03/22 08:58:01;;;;;;;2.10;0.50;;;;;;;;;;4965249;28;20042;-56
2021/03/22 09:00:30;;;;;;;1.20;0.30;;;;;;;;;;4963515;28;20539;-58
2021/03/22 09:02:58;;;;;;;1.52;0.40;;;;;;;;;;4962245;28;20085;-55
2021/03/22 09:05:25;;;;;;;2.05;0.43;;;;;;;;;;4959240;28;20696;-57
2021/03/22 09:07:51;;;;;;;1.67;0.40;;;;;;;;;;4963902;28;20424;-57
2021/03/22 09:10:17;;;;;;;2.05;0.45;;;;;;;;;;4962235;28;20046;-55
2021/03/22 09:12:46;;;;;;;1.15;0.40;;;;;;;;;;4963919;28;20089;-57
2021/03/22 09:15:14;;;;;;;1.50;0.40;;;;;;;;;;4961715;28;20113;-57
2021/03/22 09:17:49;;;;;;;1.58;0.40;;;;;;;;;;4962457;28;20116;-57
2021/03/22 09:20:17;;;;;;;2.20;0.40;;;;;;;;;;4962313;28;20039;-58
2021/03/22 09:22:45;;;;;;;1.13;0.40;;;;;;;;;;4961811;28;20097;-58
2021/03/22 09:25:12;;;;;;;1.75;0.50;;;;;;;;;;4962174;28;20057;-57
2021/03/22 09:27:38;;;;;;;0.88;0.40;;;;;;;;;;4961414;28;20129;-57
2021/03/22 09:30:07;;;;;;;0.70;0.32;;;;;;;;;;4961533;28;20175;-57
2021/03/22 09:32:33;;;;;;;1.42;0.40;;;;;;;;;;4959918;28;20035;-57
2021/03/22 09:35:24;;;;;;;1.73;0.50;;;;;;;;;;4962303;28;20542;-57
2021/03/22 09:37:56;;;;;;;1.42;0.50;;;;;;;;;;4962316;28;20750;-58
2021/03/22 09:40:22;;;;;;;2.50;0.40;;;;;;;;;;4962881;28;20055;-58
2021/03/22 09:43:07;;;;;;;1.65;0.60;;;;;;;;;;4963007;28;20582;-57
2021/03/22 09:45:37;;;;;;;1.48;0.40;;;;;;;;;;4961440;28;20038;-58
2021/03/22 09:48:23;;;;;;;2.00;0.40;;;;;;;;;;4961865;28;20042;-58
2021/03/22 09:50:51;;;;;;;2.55;0.40;;;;;;;;;;4962237;28;20034;-57
2021/03/22 09:53:32;;;;;;;2.42;0.50;;;;;;;;;;4962832;28;20073;-58
2021/03/22 09:56:08;;;;;;;2.05;0.45;;;;;;;;;;4962510;28;20056;-58
2021/03/22 09:58:45;;;;;;;3.67;0.50;;;;;;;;;;4965798;28;20042;-56
2021/03/22 10:01:33;;;;;;;1.38;0.40;;;;;;;;;;4962533;28;20452;-57
2021/03/22 10:04:18;;;;;;;1.13;0.40;;;;;;;;;;4961548;28;20551;-55
2021/03/22 10:07:13;;;;;;;2.05;0.50;;;;;;;;;;4960607;28;20034;-55
2021/03/22 10:09:41;;;;;;;2.88;0.50;;;;;;;;;;4965131;28;20035;-57
2021/03/22 10:12:28;;;;;;;1.33;0.40;;;;;;;;;;4962523;28;20053;-57
2021/03/22 10:15:04;;;;;;;0.82;0.40;;;;;;;;;;4960030;28;20053;-58
2021/03/22 10:17:33;;;;;;;0.98;0.40;;;;;;;;;;4961641;28;20811;-58
2021/03/22 10:20:17;;;;;;;0.45;0.40;;;;;;;;;;4961490;28;20135;-58
2021/03/22 10:23:06;;;;;;;1.15;0.40;;;;;;;;;;4978206;28;20475;-58
2021/03/22 10:25:33;;;;;;;1.90;0.40;;;;;;;;;;4960370;28;20089;-56
2021/03/22 10:28:07;;;;;;;1.02;0.35;;;;;;;;;;4978107;28;20046;-58
2021/03/22 10:30:32;;;;;;;;;;;;;;;;;;4978622;28;20069;-56
2021/03/22 10:33:00;;;;;;;1.40;0.43;;;;;;;;;;4978358;28;19922;-58
2021/03/22 10:35:46;;;;;;;1.02;0.40;;;;;;;;;;4976174;28;20130;-57
2021/03/22 10:38:23;;;;;;;1.38;0.40;;;;;;;;;;4977391;28;20035;-58
2021/03/22 10:40:50;;;;;;;3.05;0.40;;;;;;;;;;4979056;28;20113;-58
2021/03/22 10:43:41;;;;;;;1.45;0.50;;;;;;;;;;4976450;28;20026;-58
2021/03/22 10:46:18;;;;;;;1.70;0.40;;;;;;;;;;4975552;28;20090;-57
2021/03/22 10:48:44;;;;;;;2.13;0.50;;;;;;;;;;4977344;28;20046;-56
2021/03/22 10:51:10;;;;;;;1.30;0.40;;;;;;;;;;4976715;28;20122;-58
2021/03/22 10:53:51;;;;;;;1.25;0.40;;;;;;;;;;4971685;28;20143;-58
2021/03/22 10:56:22;;;;;;;1.00;0.40;;;;;;;;;;4962089;28;20054;-57
2021/03/22 10:58:49;;;;;;;3.58;0.47;;;;;;;;;;4959756;28;20361;-57
2021/03/22 11:01:17;;;;;;;3.28;0.50;;;;;;;;;;4960819;28;20047;-57
2021/03/22 11:03:48;;;;;;;1.85;0.35;;;;;;;;;;4960778;28;20547;-57
2021/03/22 11:06:19;;;;;;;1.73;0.40;;;;;;;;;;4961936;28;20038;-57
2021/03/22 11:08:52;;;;;;;1.67;0.40;;;;;;;;;;4961760;28;20057;-58
2021/03/22 11:11:19;;;;;;;1.77;0.47;;;;;;;;;;4960014;28;20073;-58
2021/03/22 11:13:46;;;;;;;1.90;0.40;;;;;;;;;;4961188;28;20387;-57
2021/03/22 11:16:19;;;;;;;1.77;0.50;;;;;;;;;;4961709;28;20117;-54
2021/03/22 11:18:45;;;;;;;1.67;0.45;;;;;;;;;;4961022;28;20816;-57
2021/03/22 11:21:11;;;;;;;1.85;0.40;;;;;;;;;;4964388;28;20039;-56
2021/03/22 11:23:44;;;;;;;1.30;0.50;;;;;;;;;;4964381;28;20085;-58
2021/03/22 11:26:18;;;;;;;1.15;0.40;;;;;;;;;;4965627;28;20542;-58
2021/03/22 11:28:45;;;;;;;4.72;0.60;;;;;;;;;;4969146;28;20046;-56
2021/03/22 11:31:23;;;;;;;2.20;0.50;;;;;;;;;;4964389;28;21099;-57
2021/03/22 11:33:58;;;;;;;2.65;0.40;;;;;;;;;;4965178;28;20043;-57
2021/03/22 11:36:35;;;;;;;1.42;0.50;;;;;;;;;;4964623;28;20051;-57
2021/03/22 11:39:21;;;;;;;1.05;0.40;;;;;;;;;;4963708;28;20035;-56
2021/03/22 11:41:52;;;;;;;1.02;0.50;;;;;;;;;;4962797;28;20684;-57
2021/03/22 11:44:31;;;;;;;3.53;0.50;;;;;;;;;;4962918;28;20117;-58
2021/03/22 11:47:16;;;;;;;2.50;0.50;;;;;;;;;;4964451;28;20045;-58
2021/03/22 11:49:47;;;;;;;1.52;0.45;;;;;;;;;;4963090;28;20128;-58
2021/03/22 11:52:15;;;;;;;2.47;0.47;;;;;;;;;;4963943;28;20050;-56
2021/03/22 11:54:49;;;;;;;2.97;0.43;;;;;;;;;;4963647;28;20104;-57
2021/03/22 11:57:19;;;;;;;1.80;0.50;;;;;;;;;;4962557;28;20093;-58
2021/03/22 11:59:56;;;;;;;2.08;0.47;;;;;;;;;;4963682;28;20039;-58
2021/03/22 12:02:25;;;;;;;2.47;0.50;;;;;;;;;;4963943;28;20125;-57
2021/03/22 12:05:13;;;;;;;6.57;0.57;;;;;;;;;;4964744;28;20054;-58
2021/03/22 12:07:39;;;;;;;0.98;0.38;;;;;;;;;;4962572;28;20046;-58
2021/03/22 12:10:14;;;;;;;1.77;0.40;;;;;;;;;;4964270;28;20074;-56
2021/03/22 12:12:40;;;;;;;2.65;0.60;;;;;;;;;;4961191;28;20047;-58
2021/03/22 12:15:06;;;;;;;1.73;0.50;;;;;;;;;;4964070;28;20151;-58
2021/03/22 12:17:32;;;;;;;1.50;0.50;;;;;;;;;;4962072;28;20054;-56
2021/03/22 12:19:58;;;;;;;4.28;0.50;;;;;;;;;;4963678;28;20239;-57
2021/03/22 12:22:24;;;;;;;2.35;0.40;;;;;;;;;;4961548;28;20083;-54
2021/03/22 12:24:51;;;;;;;4.00;0.50;;;;;;;;;;4963218;28;20863;-57
2021/03/22 12:27:18;;;;;;;4.03;0.50;;;;;;;;;;4963858;28;20057;-56
2021/03/22 12:29:44;;;;;;;4.22;0.50;;;;;;;;;;4962046;28;20058;-56
2021/03/22 12:32:21;;;;;;;2.17;0.47;;;;;;;;;;4962138;28;20030;-57
2021/03/22 12:34:47;;;;;;;1.45;0.40;;;;;;;;;;4962037;28;20621;-57
2021/03/22 12:37:22;;;;;;;1.48;0.40;;;;;;;;;;4963528;28;20059;-55
2021/03/22 12:39:48;;;;;;;2.90;0.43;;;;;;;;;;4961003;28;20039;-56
2021/03/22 12:42:14;;;;;;;3.25;0.50;;;;;;;;;;4962391;28;20847;-55
2021/03/22 12:44:41;;;;;;;2.20;0.50;;;;;;;;;;4960942;28;20050;-54
2021/03/22 12:47:07;;;;;;;1.27;0.40;;;;;;;;;;4962361;28;20125;-57
2021/03/22 12:49:33;;;;;;;2.33;0.50;;;;;;;;;;4961968;28;20050;-56
2021/03/22 12:51:59;;;;;;;1.60;0.40;;;;;;;;;;4961069;28;20047;-56
2021/03/22 12:54:25;;;;;;;1.52;0.45;;;;;;;;;;4961326;28;20428;-53
2021/03/22 12:56:51;;;;;;;1.33;0.50;;;;;;;;;;4961975;28;20803;-53
2021/03/22 12:59:37;;;;;;;3.58;0.60;;;;;;;;;;4962700;28;20102;-56
2021/03/22 13:02:12;;;;;;;2.75;0.50;;;;;;;;;;4959462;28;22020;-53
2021/03/22 13:04:37;;;;;;;3.25;0.50;;;;;;;;;;4958598;28;20046;-56
2021/03/22 13:07:03;;;;;;;3.03;0.70;;;;;;;;;;4963948;28;20809;-56
2021/03/22 13:09:29;;;;;;;5.72;0.60;;;;;;;;;;4963567;28;20046;-56
2021/03/22 13:11:55;;;;;;;3.08;0.50;;;;;;;;;;4961014;28;20048;-56
2021/03/22 13:14:21;;;;;;;2.75;0.50;;;;;;;;;;4961439;28;20427;-57
2021/03/22 13:16:47;;;;;;;2.45;0.50;;;;;;;;;;4961442;28;20047;-56
2021/03/22 13:19:33;;;;;;;9.15;0.60;;;;;;;;;;4978608;28;20527;-57
2021/03/22 13:21:58;;;;;;;5.03;0.50;;;;;;;;;;4979217;28;20165;-53
2021/03/22 13:24:24;;;;;;;2.53;0.60;;;;;;;;;;4995646;28;20042;-56
2021/03/22 13:26:50;;;;;;;9.38;1.65;;;;;;;;;;4979406;28;20038;-55
2021/03/22 13:29:16;;;;;;;2.80;0.75;;;;;;;;;;4976646;28;20042;-57
2021/03/22 13:31:42;;;;;;;5.68;0.75;;;;;;;;;;4976800;28;20043;-57
2021/03/22 13:34:09;;;;;;;13.60;0.90;;;;;;;;;;4980505;28;20080;-57
2021/03/22 13:36:35;;;;;;;3.55;0.50;;;;;;;;;;4977256;28;20396;-57
2021/03/22 13:39:01;;;;;;;9.57;0.73;;;;;;;;;;4978563;28;20040;-56
2021/03/22 13:41:29;;;;;;;8.13;0.80;;;;;;;;;;4977208;28;20136;-57
2021/03/22 13:43:56;;;;;;;1.60;0.50;;;;;;;;;;4977879;28;20078;-56
2021/03/22 13:46:23;;;;;;;4.20;0.68;;;;;;;;;;4977694;28;20045;-55
2021/03/22 13:48:49;;;;;;;4.25;0.52;;;;;;;;;;4979239;28;20045;-54
2021/03/22 13:51:23;;;;;;;5.70;0.70;;;;;;;;;;4997704;28;20042;-55
2021/03/22 13:53:48;;;;;;;5.47;0.90;;;;;;;;;;4962918;28;20577;-55
2021/03/22 13:56:14;;;;;;;2.05;0.60;;;;;;;;;;4994316;28;20066;-55
2021/03/22 13:58:40;;;;;;;3.33;0.63;;;;;;;;;;4963960;28;20367;-54
2021/03/22 14:01:06;;;;;;;6.97;0.80;;;;;;;;;;4962908;28;20057;-55
2021/03/22 14:03:33;;;;;;;10.68;1.05;;;;;;;;;;4963074;28;20678;-56
2021/03/22 14:05:59;;;;;;;3.60;0.70;;;;;;;;;;4962319;28;20785;-55
2021/03/22 14:08:26;;;;;;;1.98;0.57;;;;;;;;;;4961772;28;20180;-55
2021/03/22 14:10:52;;;;;;;6.90;0.60;;;;;;;;;;4960276;28;20062;-56
2021/03/22 14:13:19;;;;;;;2.95;0.70;;;;;;;;;;4963121;28;20061;-56
2021/03/22 14:15:46;;;;;;;3.97;0.85;;;;;;;;;;4962337;28;20049;-56
2021/03/22 14:18:13;;;;;;;3.88;0.57;;;;;;;;;;4961851;28;20034;-54
2021/03/22 14:20:39;;;;;;;4.50;0.60;;;;;;;;;;4960405;28;20118;-56
2021/03/22 14:23:07;;;;;;;3.67;0.47;;;;;;;;;;4962225;28;20547;-54
2021/03/22 14:25:33;;;;;;;5.38;0.57;;;;;;;;;;4963195;28;20169;-57
2021/03/22 14:27:59;;;;;;;8.23;0.98;;;;;;;;;;4962978;28;20717;-55
2021/03/22 14:30:27;;;;;;;7.45;0.85;;;;;;;;;;4962790;28;20789;-56
2021/03/22 14:32:54;;;;;;;4.05;0.70;;;;;;;;;;4962276;28;20054;-56
2021/03/22 14:35:21;;;;;;;3.47;0.80;;;;;;;;;;4963743;28;20161;-56
2021/03/22 14:37:46;;;;;;;3.97;0.60;;;;;;;;;;4961306;28;20100;-53
2021/03/22 14:40:13;;;;;;;6.15;0.70;;;;;;;;;;4962448;28;20377;-56
2021/03/22 14:42:38;;;;;;;3.70;0.80;;;;;;;;;;4962076;28;20126;-57
2021/03/22 14:45:08;;;;;;;3.95;0.73;;;;;;;;;;4963606;28;20045;-56
2021/03/22 14:47:34;;;;;;;4.20;0.57;;;;;;;;;;4960378;28;20041;-57
2021/03/22 14:50:00;;;;;;;5.10;0.50;;;;;;;;;;4962749;28;20038;-56
2021/03/22 14:52:26;;;;;;;6.43;0.98;;;;;;;;;;4961877;28;20523;-55
2021/03/22 14:54:52;;;;;;;1.52;0.50;;;;;;;;;;4964066;28;20043;-55
2021/03/22 14:57:19;;;;;;;8.75;0.80;;;;;;;;;;4963760;28;20078;-56
2021/03/22 14:59:46;;;;;;;5.38;0.60;;;;;;;;;;4965094;28;20049;-55
2021/03/22 15:02:11;;;;;;;3.83;0.50;;;;;;;;;;4956798;28;20043;-56